sensor_id;sensor_type;location;lat;lon;timestamp;pressure;altitude;pressure_sealevel;temperature;humidity
19751;BME280;4663;49.120;9.730;2023-02-11T00:00:50;100067.19;;;-7.21;80.41
19751;BME280;4663;49.120;9.730;2023-02-11T00:03:15;100073.56;;;-7.37;81.81
19751;BME280;4663;49.120;9.730;2023-02-11T00:05:41;100074.28;;;-7.26;81.69
19751;BME280;4663;49.120;9.730;2023-02-11T00:08:06;100074.56;;;-6.86;80.73
19751;BME280;4663;49.120;9.730;2023-02-11T00:10:32;100067.28;;;-6.69;80.21
19751;BME280;4663;49.120;9.730;2023-02-11T00:12:57;100065.09;;;-6.97;80.26
19751;BME280;4663;49.120;9.730;2023-02-11T00:15:22;100070.47;;;-7.05;80.08
19751;BME280;4663;49.120;9.730;2023-02-11T00:17:48;100074.41;;;-7.35;80.93
19751;BME280;4663;49.120;9.730;2023-02-11T00:20:13;100075.06;;;-7.19;81.28
19751;BME280;4663;49.120;9.730;2023-02-11T00:22:39;100066.28;;;-7.18;81.09
19751;BME280;4663;49.120;9.730;2023-02-11T00:25:04;100062.88;;;-7.25;80.96
19751;BME280;4663;49.120;9.730;2023-02-11T00:27:30;100066.41;;;-7.28;81.35
19751;BME280;4663;49.120;9.730;2023-02-11T00:29:55;100067.13;;;-7.16;81.00
19751;BME280;4663;49.120;9.730;2023-02-11T00:32:20;100065.31;;;-7.13;80.94
19751;BME280;4663;49.120;9.730;2023-02-11T00:34:46;100056.41;;;-7.02;80.26
19751;BME280;4663;49.120;9.730;2023-02-11T00:37:11;100052.16;;;-7.09;80.46
19751;BME280;4663;49.120;9.730;2023-02-11T00:39:37;100051.44;;;-7.21;80.79
19751;BME280;4663;49.120;9.730;2023-02-11T00:42:03;100046.28;;;-7.27;81.38
19751;BME280;4663;49.120;9.730;2023-02-11T00:44:28;100046.22;;;-7.24;80.78
19751;BME280;4663;49.120;9.730;2023-02-11T00:46:53;100050.47;;;-7.14;80.58
19751;BME280;4663;49.120;9.730;2023-02-11T00:49:19;100042.56;;;-7.14;80.68
19751;BME280;4663;49.120;9.730;2023-02-11T00:51:44;100027.66;;;-7.10;80.56
19751;BME280;4663;49.120;9.730;2023-02-11T00:54:09;100016.34;;;-7.17;80.39
19751;BME280;4663;49.120;9.730;2023-02-11T00:56:35;100027.00;;;-7.26;80.49
19751;BME280;4663;49.120;9.730;2023-02-11T00:59:00;100033.00;;;-7.16;81.13
19751;BME280;4663;49.120;9.730;2023-02-11T01:01:26;100037.03;;;-6.95;80.52
19751;BME280;4663;49.120;9.730;2023-02-11T01:03:51;100038.31;;;-7.21;80.16
19751;BME280;4663;49.120;9.730;2023-02-11T01:06:18;100030.47;;;-7.24;80.19
19751;BME280;4663;49.120;9.730;2023-02-11T01:08:43;100027.72;;;-7.15;80.66
19751;BME280;4663;49.120;9.730;2023-02-11T01:11:17;100022.63;;;-7.25;80.56
19751;BME280;4663;49.120;9.730;2023-02-11T01:13:43;100024.31;;;-7.21;81.28
19751;BME280;4663;49.120;9.730;2023-02-11T01:16:10;100036.81;;;-7.39;81.95
19751;BME280;4663;49.120;9.730;2023-02-11T01:18:35;100036.81;;;-7.37;81.93
19751;BME280;4663;49.120;9.730;2023-02-11T01:21:02;100032.25;;;-7.26;81.67
19751;BME280;4663;49.120;9.730;2023-02-11T01:23:28;100032.50;;;-7.43;82.19
19751;BME280;4663;49.120;9.730;2023-02-11T01:25:53;100023.91;;;-6.95;81.40
19751;BME280;4663;49.120;9.730;2023-02-11T01:28:20;100012.25;;;-6.78;80.57
19751;BME280;4663;49.120;9.730;2023-02-11T01:30:47;100013.59;;;-7.06;79.76
19751;BME280;4663;49.120;9.730;2023-02-11T01:33:13;100016.34;;;-7.17;80.50
19751;BME280;4663;49.120;9.730;2023-02-11T01:35:39;100024.44;;;-7.29;80.77
19751;BME280;4663;49.120;9.730;2023-02-11T01:38:06;100025.56;;;-7.47;81.34
19751;BME280;4663;49.120;9.730;2023-02-11T01:40:31;100024.91;;;-7.02;80.82
19751;BME280;4663;49.120;9.730;2023-02-11T01:42:57;100028.09;;;-6.84;80.46
19751;BME280;4663;49.120;9.730;2023-02-11T01:48:03;100025.25;;;-6.70;79.97
19751;BME280;4663;49.120;9.730;2023-02-11T01:50:28;100021.06;;;-6.82;79.22
19751;BME280;4663;49.120;9.730;2023-02-11T01:52:54;100026.31;;;-6.81;79.42
19751;BME280;4663;49.120;9.730;2023-02-11T01:55:39;100011.94;;;-7.13;79.91
19751;BME280;4663;49.120;9.730;2023-02-11T01:58:24;100000.41;;;-7.04;79.75
19751;BME280;4663;49.120;9.730;2023-02-11T02:00:50;100013.50;;;-7.03;80.72
19751;BME280;4663;49.120;9.730;2023-02-11T02:03:19;100006.41;;;-6.96;80.61
19751;BME280;4663;49.120;9.730;2023-02-11T02:08:35;99994.63;;;-6.73;81.12
19751;BME280;4663;49.120;9.730;2023-02-11T02:11:03;99980.50;;;-6.67;80.52
19751;BME280;4663;49.120;9.730;2023-02-11T02:13:31;99983.88;;;-6.60;80.27
19751;BME280;4663;49.120;9.730;2023-02-11T02:15:59;99987.28;;;-6.52;80.12
19751;BME280;4663;49.120;9.730;2023-02-11T02:30:08;99957.16;;;-6.36;79.23
19751;BME280;4663;49.120;9.730;2023-02-11T02:32:43;99956.19;;;-6.31;78.62
19751;BME280;4663;49.120;9.730;2023-02-11T02:37:57;99939.53;;;-6.32;79.17
19751;BME280;4663;49.120;9.730;2023-02-11T02:40:32;99945.63;;;-6.28;79.63
19751;BME280;4663;49.120;9.730;2023-02-11T02:43:00;99939.44;;;-6.27;79.71
19751;BME280;4663;49.120;9.730;2023-02-11T02:45:27;99934.03;;;-6.19;79.56
19751;BME280;4663;49.120;9.730;2023-02-11T02:47:52;99930.63;;;-6.25;79.50
19751;BME280;4663;49.120;9.730;2023-02-11T02:50:22;99932.31;;;-6.22;80.16
19751;BME280;4663;49.120;9.730;2023-02-11T02:53:25;99927.91;;;-6.20;80.40
19751;BME280;4663;49.120;9.730;2023-02-11T02:56:03;99906.66;;;-6.11;80.38
19751;BME280;4663;49.120;9.730;2023-02-11T03:01:27;99910.91;;;-6.03;80.77
19751;BME280;4663;49.120;9.730;2023-02-11T03:07:05;99925.88;;;-6.07;81.33
19751;BME280;4663;49.120;9.730;2023-02-11T03:09:40;99923.22;;;-6.05;81.18
19751;BME280;4663;49.120;9.730;2023-02-11T03:12:08;99935.22;;;-5.92;81.53
19751;BME280;4663;49.120;9.730;2023-02-11T03:14:35;99942.00;;;-5.81;80.76
19751;BME280;4663;49.120;9.730;2023-02-11T03:17:02;99928.59;;;-5.70;80.00
19751;BME280;4663;49.120;9.730;2023-02-11T03:19:36;99942.53;;;-6.06;80.75
19751;BME280;4663;49.120;9.730;2023-02-11T03:22:07;99936.75;;;-5.83;80.79
19751;BME280;4663;49.120;9.730;2023-02-11T03:24:36;99929.63;;;-5.76;79.98
19751;BME280;4663;49.120;9.730;2023-02-11T03:27:14;99937.31;;;-5.68;79.45
19751;BME280;4663;49.120;9.730;2023-02-11T03:30:09;99921.44;;;-5.64;79.80
19751;BME280;4663;49.120;9.730;2023-02-11T03:32:38;99915.31;;;-5.66;80.13
19751;BME280;4663;49.120;9.730;2023-02-11T03:35:23;99919.47;;;-5.55;80.28
19751;BME280;4663;49.120;9.730;2023-02-11T03:37:56;99930.81;;;-5.53;79.89
19751;BME280;4663;49.120;9.730;2023-02-11T03:40:27;99930.00;;;-5.55;80.05
19751;BME280;4663;49.120;9.730;2023-02-11T03:43:21;99928.13;;;-5.50;80.44
19751;BME280;4663;49.120;9.730;2023-02-11T03:45:50;99929.91;;;-5.51;79.69
19751;BME280;4663;49.120;9.730;2023-02-11T03:48:21;99918.28;;;-5.42;79.24
19751;BME280;4663;49.120;9.730;2023-02-11T03:50:49;99926.16;;;-5.42;79.25
19751;BME280;4663;49.120;9.730;2023-02-11T03:53:17;99921.81;;;-5.43;80.06
19751;BME280;4663;49.120;9.730;2023-02-11T03:55:46;99920.81;;;-5.37;80.34
19751;BME280;4663;49.120;9.730;2023-02-11T03:58:13;99914.81;;;-5.44;80.43
19751;BME280;4663;49.120;9.730;2023-02-11T04:00:40;99915.50;;;-5.36;80.37
19751;BME280;4663;49.120;9.730;2023-02-11T04:03:06;99915.56;;;-5.39;80.26
19751;BME280;4663;49.120;9.730;2023-02-11T04:05:32;99916.31;;;-5.34;80.07
19751;BME280;4663;49.120;9.730;2023-02-11T04:07:57;99922.53;;;-5.36;80.66
19751;BME280;4663;49.120;9.730;2023-02-11T04:10:23;99929.69;;;-5.41;81.45
19751;BME280;4663;49.120;9.730;2023-02-11T04:12:48;99933.84;;;-5.31;81.47
19751;BME280;4663;49.120;9.730;2023-02-11T04:15:14;99941.50;;;-5.22;81.75
19751;BME280;4663;49.120;9.730;2023-02-11T04:17:39;99944.41;;;-5.33;82.11
19751;BME280;4663;49.120;9.730;2023-02-11T04:20:05;99949.13;;;-5.11;81.37
19751;BME280;4663;49.120;9.730;2023-02-11T04:22:30;99932.34;;;-5.07;81.19
19751;BME280;4663;49.120;9.730;2023-02-11T04:24:56;99934.16;;;-5.09;81.03
19751;BME280;4663;49.120;9.730;2023-02-11T04:27:21;99923.69;;;-5.12;80.28
19751;BME280;4663;49.120;9.730;2023-02-11T04:29:46;99930.22;;;-4.92;80.42
19751;BME280;4663;49.120;9.730;2023-02-11T04:32:13;99932.03;;;-4.94;80.60
19751;BME280;4663;49.120;9.730;2023-02-11T04:34:38;99934.59;;;-4.91;81.14
19751;BME280;4663;49.120;9.730;2023-02-11T04:37:04;99931.25;;;-4.98;81.34
19751;BME280;4663;49.120;9.730;2023-02-11T04:39:29;99921.47;;;-4.94;81.35
19751;BME280;4663;49.120;9.730;2023-02-11T04:41:55;99924.13;;;-4.94;81.21
19751;BME280;4663;49.120;9.730;2023-02-11T04:44:20;99918.66;;;-4.86;81.02
19751;BME280;4663;49.120;9.730;2023-02-11T04:46:46;99914.09;;;-4.79;80.78
19751;BME280;4663;49.120;9.730;2023-02-11T04:49:15;99909.06;;;-4.89;81.18
19751;BME280;4663;49.120;9.730;2023-02-11T04:51:41;99903.88;;;-4.92;81.32
19751;BME280;4663;49.120;9.730;2023-02-11T04:54:07;99888.81;;;-4.88;81.04
19751;BME280;4663;49.120;9.730;2023-02-11T04:56:32;99893.97;;;-4.84;81.34
19751;BME280;4663;49.120;9.730;2023-02-11T04:58:58;99887.00;;;-4.85;81.63
19751;BME280;4663;49.120;9.730;2023-02-11T05:01:23;99885.97;;;-4.79;80.98
19751;BME280;4663;49.120;9.730;2023-02-11T05:03:48;99889.75;;;-4.58;80.72
19751;BME280;4663;49.120;9.730;2023-02-11T05:06:15;99890.41;;;-4.49;80.40
19751;BME280;4663;49.120;9.730;2023-02-11T05:08:41;99886.19;;;-4.55;80.12
19751;BME280;4663;49.120;9.730;2023-02-11T05:11:08;99894.38;;;-4.66;81.02
19751;BME280;4663;49.120;9.730;2023-02-11T05:13:38;99897.13;;;-4.69;81.69
19751;BME280;4663;49.120;9.730;2023-02-11T05:16:04;99894.06;;;-4.53;80.88
19751;BME280;4663;49.120;9.730;2023-02-11T05:18:29;99880.59;;;-4.44;81.12
19751;BME280;4663;49.120;9.730;2023-02-11T05:20:54;99891.22;;;-4.47;81.28
19751;BME280;4663;49.120;9.730;2023-02-11T05:23:20;99887.06;;;-4.24;80.63
19751;BME280;4663;49.120;9.730;2023-02-11T05:25:45;99890.88;;;-4.35;81.00
19751;BME280;4663;49.120;9.730;2023-02-11T05:28:10;99888.31;;;-4.38;80.99
19751;BME280;4663;49.120;9.730;2023-02-11T05:30:36;99885.22;;;-4.22;81.10
19751;BME280;4663;49.120;9.730;2023-02-11T05:33:01;99883.97;;;-4.39;80.99
19751;BME280;4663;49.120;9.730;2023-02-11T05:35:26;99893.88;;;-4.47;81.47
19751;BME280;4663;49.120;9.730;2023-02-11T05:37:52;99896.38;;;-4.12;81.16
19751;BME280;4663;49.120;9.730;2023-02-11T05:40:17;99895.03;;;-4.26;81.60
19751;BME280;4663;49.120;9.730;2023-02-11T05:42:43;99891.91;;;-4.40;82.03
19751;BME280;4663;49.120;9.730;2023-02-11T05:45:08;99891.94;;;-4.42;82.60
19751;BME280;4663;49.120;9.730;2023-02-11T05:47:33;99892.69;;;-4.37;82.66
19751;BME280;4663;49.120;9.730;2023-02-11T05:49:59;99905.69;;;-4.31;82.66
19751;BME280;4663;49.120;9.730;2023-02-11T05:52:24;99891.22;;;-3.87;81.49
19751;BME280;4663;49.120;9.730;2023-02-11T05:54:50;99900.03;;;-4.17;82.27
19751;BME280;4663;49.120;9.730;2023-02-11T05:57:15;99888.25;;;-3.76;80.93
19751;BME280;4663;49.120;9.730;2023-02-11T05:59:41;99887.16;;;-3.97;81.55
19751;BME280;4663;49.120;9.730;2023-02-11T06:02:08;99882.00;;;-4.02;82.01
19751;BME280;4663;49.120;9.730;2023-02-11T06:04:34;99881.63;;;-3.89;81.95
19751;BME280;4663;49.120;9.730;2023-02-11T06:07:00;99885.09;;;-3.87;81.37
19751;BME280;4663;49.120;9.730;2023-02-11T06:09:26;99887.19;;;-3.70;80.61
19751;BME280;4663;49.120;9.730;2023-02-11T06:11:51;99889.81;;;-3.70;80.21
19751;BME280;4663;49.120;9.730;2023-02-11T06:14:17;99888.00;;;-3.97;80.73
19751;BME280;4663;49.120;9.730;2023-02-11T06:16:43;99887.38;;;-3.76;80.66
19751;BME280;4663;49.120;9.730;2023-02-11T06:19:09;99874.22;;;-3.78;80.88
19751;BME280;4663;49.120;9.730;2023-02-11T06:21:35;99874.63;;;-3.62;80.71
19751;BME280;4663;49.120;9.730;2023-02-11T06:24:00;99872.69;;;-3.57;80.54
19751;BME280;4663;49.120;9.730;2023-02-11T06:26:26;99874.81;;;-3.68;80.63
19751;BME280;4663;49.120;9.730;2023-02-11T06:28:51;99873.25;;;-3.47;80.47
19751;BME280;4663;49.120;9.730;2023-02-11T06:31:17;99866.38;;;-3.53;79.45
19751;BME280;4663;49.120;9.730;2023-02-11T06:33:43;99866.84;;;-3.67;80.22
19751;BME280;4663;49.120;9.730;2023-02-11T06:36:19;99882.19;;;-3.51;79.43
19751;BME280;4663;49.120;9.730;2023-02-11T06:38:45;99883.03;;;-3.50;79.37
19751;BME280;4663;49.120;9.730;2023-02-11T06:41:16;99882.69;;;-3.40;79.52
19751;BME280;4663;49.120;9.730;2023-02-11T06:43:42;99887.56;;;-3.54;80.02
19751;BME280;4663;49.120;9.730;2023-02-11T06:46:08;99888.13;;;-3.44;79.99
19751;BME280;4663;49.120;9.730;2023-02-11T06:48:33;99886.41;;;-3.45;80.01
19751;BME280;4663;49.120;9.730;2023-02-11T06:51:03;99882.75;;;-3.41;79.58
19751;BME280;4663;49.120;9.730;2023-02-11T06:53:30;99879.63;;;-3.54;80.40
19751;BME280;4663;49.120;9.730;2023-02-11T06:55:55;99870.47;;;-3.42;79.91
19751;BME280;4663;49.120;9.730;2023-02-11T06:58:21;99864.59;;;-3.25;78.56
19751;BME280;4663;49.120;9.730;2023-02-11T07:00:46;99862.44;;;-3.14;79.13
19751;BME280;4663;49.120;9.730;2023-02-11T07:03:12;99864.00;;;-3.08;79.22
19751;BME280;4663;49.120;9.730;2023-02-11T07:05:41;99867.41;;;-3.30;79.15
19751;BME280;4663;49.120;9.730;2023-02-11T07:08:06;99873.19;;;-3.18;79.31
19751;BME280;4663;49.120;9.730;2023-02-11T07:10:32;99882.19;;;-3.51;79.78
19751;BME280;4663;49.120;9.730;2023-02-11T07:12:58;99879.94;;;-3.36;79.38
19751;BME280;4663;49.120;9.730;2023-02-11T07:15:23;99878.25;;;-3.39;79.54
19751;BME280;4663;49.120;9.730;2023-02-11T07:17:48;99875.84;;;-3.18;79.04
19751;BME280;4663;49.120;9.730;2023-02-11T07:20:14;99865.53;;;-3.01;79.06
19751;BME280;4663;49.120;9.730;2023-02-11T07:22:39;99871.94;;;-3.08;78.97
19751;BME280;4663;49.120;9.730;2023-02-11T07:25:05;99869.00;;;-2.98;78.66
19751;BME280;4663;49.120;9.730;2023-02-11T07:27:30;99866.72;;;-3.09;78.44
19751;BME280;4663;49.120;9.730;2023-02-11T07:29:55;99868.22;;;-3.02;78.01
19751;BME280;4663;49.120;9.730;2023-02-11T07:32:21;99873.94;;;-2.89;77.74
19751;BME280;4663;49.120;9.730;2023-02-11T07:34:46;99852.56;;;-2.83;76.90
19751;BME280;4663;49.120;9.730;2023-02-11T07:37:12;99858.28;;;-2.95;77.82
19751;BME280;4663;49.120;9.730;2023-02-11T07:39:38;99861.50;;;-3.13;78.58
19751;BME280;4663;49.120;9.730;2023-02-11T07:42:03;99864.88;;;-2.82;78.17
19751;BME280;4663;49.120;9.730;2023-02-11T07:44:29;99866.06;;;-2.65;77.59
19751;BME280;4663;49.120;9.730;2023-02-11T07:46:54;99868.41;;;-2.57;76.97
19751;BME280;4663;49.120;9.730;2023-02-11T07:49:19;99863.53;;;-2.44;76.55
19751;BME280;4663;49.120;9.730;2023-02-11T07:51:45;99880.44;;;-2.25;76.58
19751;BME280;4663;49.120;9.730;2023-02-11T07:54:11;99880.56;;;-2.28;76.62
19751;BME280;4663;49.120;9.730;2023-02-11T07:56:36;99880.72;;;-2.08;76.27
19751;BME280;4663;49.120;9.730;2023-02-11T07:59:02;99884.63;;;-1.95;75.87
19751;BME280;4663;49.120;9.730;2023-02-11T08:01:28;99884.69;;;-1.97;75.93
19751;BME280;4663;49.120;9.730;2023-02-11T08:03:56;99881.31;;;-1.78;75.88
19751;BME280;4663;49.120;9.730;2023-02-11T08:06:24;99888.88;;;-1.68;75.82
19751;BME280;4663;49.120;9.730;2023-02-11T08:08:50;99891.97;;;-1.57;75.75
19751;BME280;4663;49.120;9.730;2023-02-11T08:11:27;99885.44;;;-1.48;75.02
19751;BME280;4663;49.120;9.730;2023-02-11T08:13:53;99885.66;;;-1.54;73.84
19751;BME280;4663;49.120;9.730;2023-02-11T08:18:49;99879.66;;;-1.15;73.85
19751;BME280;4663;49.120;9.730;2023-02-11T08:21:15;99887.50;;;-0.91;73.41
19751;BME280;4663;49.120;9.730;2023-02-11T08:23:42;99882.84;;;-0.65;73.37
19751;BME280;4663;49.120;9.730;2023-02-11T08:26:13;99870.16;;;-0.58;72.17
19751;BME280;4663;49.120;9.730;2023-02-11T08:28:40;99874.22;;;-0.70;72.10
19751;BME280;4663;49.120;9.730;2023-02-11T08:31:08;99868.59;;;-0.43;72.12
19751;BME280;4663;49.120;9.730;2023-02-11T08:33:35;99862.72;;;-0.31;71.40
19751;BME280;4663;49.120;9.730;2023-02-11T08:36:00;99863.59;;;-0.30;70.67
19751;BME280;4663;49.120;9.730;2023-02-11T08:38:27;99872.50;;;0.07;71.21
19751;BME280;4663;49.120;9.730;2023-02-11T08:40:52;99864.16;;;0.15;69.72
19751;BME280;4663;49.120;9.730;2023-02-11T08:43:18;99859.66;;;-0.02;69.41
19751;BME280;4663;49.120;9.730;2023-02-11T08:45:43;99879.41;;;-0.08;69.65
19751;BME280;4663;49.120;9.730;2023-02-11T08:48:09;99878.81;;;-0.14;69.42
19751;BME280;4663;49.120;9.730;2023-02-11T08:50:34;99880.69;;;-0.17;70.35
19751;BME280;4663;49.120;9.730;2023-02-11T08:53:02;99877.22;;;0.01;69.91
19751;BME280;4663;49.120;9.730;2023-02-11T08:55:28;99884.72;;;-0.08;69.88
19751;BME280;4663;49.120;9.730;2023-02-11T08:57:53;99876.66;;;-0.06;69.58
19751;BME280;4663;49.120;9.730;2023-02-11T09:00:19;99877.97;;;0.04;69.76
19751;BME280;4663;49.120;9.730;2023-02-11T09:02:44;99875.34;;;0.22;70.13
19751;BME280;4663;49.120;9.730;2023-02-11T09:05:10;99871.19;;;0.53;69.48
19751;BME280;4663;49.120;9.730;2023-02-11T09:07:35;99867.09;;;0.83;69.10
19751;BME280;4663;49.120;9.730;2023-02-11T09:10:00;99861.66;;;1.20;67.33
19751;BME280;4663;49.120;9.730;2023-02-11T09:12:26;99865.59;;;1.96;67.35
19751;BME280;4663;49.120;9.730;2023-02-11T09:14:52;99849.50;;;2.30;67.01
19751;BME280;4663;49.120;9.730;2023-02-11T09:17:17;99862.81;;;2.62;65.62
19751;BME280;4663;49.120;9.730;2023-02-11T09:19:42;99864.84;;;2.73;64.76
19751;BME280;4663;49.120;9.730;2023-02-11T09:22:08;99876.91;;;2.64;65.07
19751;BME280;4663;49.120;9.730;2023-02-11T09:24:33;99856.25;;;3.13;63.83
19751;BME280;4663;49.120;9.730;2023-02-11T09:26:58;99866.00;;;2.84;63.90
19751;BME280;4663;49.120;9.730;2023-02-11T09:29:24;99862.38;;;3.15;63.50
19751;BME280;4663;49.120;9.730;2023-02-11T09:31:49;99847.94;;;3.03;63.08
19751;BME280;4663;49.120;9.730;2023-02-11T09:34:15;99851.56;;;2.88;63.93
19751;BME280;4663;49.120;9.730;2023-02-11T09:36:40;99862.31;;;2.86;64.19
19751;BME280;4663;49.120;9.730;2023-02-11T09:39:10;99857.84;;;3.47;64.02
19751;BME280;4663;49.120;9.730;2023-02-11T09:42:07;99869.34;;;4.05;63.83
19751;BME280;4663;49.120;9.730;2023-02-11T09:44:36;99851.06;;;3.85;62.67
19751;BME280;4663;49.120;9.730;2023-02-11T09:47:20;99857.63;;;4.48;63.17
19751;BME280;4663;49.120;9.730;2023-02-11T09:49:49;99846.41;;;4.16;61.99
19751;BME280;4663;49.120;9.730;2023-02-11T09:57:55;99883.03;;;4.56;63.31
19751;BME280;4663;49.120;9.730;2023-02-11T10:09:00;99865.63;;;5.17;62.40
19751;BME280;4663;49.120;9.730;2023-02-11T10:22:54;99881.00;;;5.91;62.21
19751;BME280;4663;49.120;9.730;2023-02-11T10:25:21;99857.22;;;4.95;60.95
19751;BME280;4663;49.120;9.730;2023-02-11T10:27:47;99876.34;;;5.30;62.35
19751;BME280;4663;49.120;9.730;2023-02-11T10:30:42;99867.59;;;6.04;60.90
19751;BME280;4663;49.120;9.730;2023-02-11T10:35:45;99869.72;;;6.36;61.03
19751;BME280;4663;49.120;9.730;2023-02-11T10:38:11;99851.41;;;6.55;59.78
19751;BME280;4663;49.120;9.730;2023-02-11T10:40:36;99858.44;;;6.69;59.59
19751;BME280;4663;49.120;9.730;2023-02-11T10:43:05;99864.38;;;5.99;60.18
19751;BME280;4663;49.120;9.730;2023-02-11T10:48:00;99836.41;;;6.52;59.30
19751;BME280;4663;49.120;9.730;2023-02-11T10:50:28;99845.81;;;6.58;60.01
19751;BME280;4663;49.120;9.730;2023-02-11T10:53:17;99834.00;;;5.61;59.97
19751;BME280;4663;49.120;9.730;2023-02-11T10:55:54;99854.00;;;6.56;60.77
19751;BME280;4663;49.120;9.730;2023-02-11T11:01:03;99849.09;;;6.86;60.04
19751;BME280;4663;49.120;9.730;2023-02-11T11:03:36;99825.91;;;6.85;58.42
19751;BME280;4663;49.120;9.730;2023-02-11T11:06:05;99819.75;;;6.71;57.98
19751;BME280;4663;49.120;9.730;2023-02-11T11:08:48;99862.34;;;5.89;62.02
19751;BME280;4663;49.120;9.730;2023-02-11T11:11:22;99830.63;;;6.21;59.94
19751;BME280;4663;49.120;9.730;2023-02-11T11:18:49;99820.31;;;6.52;58.77
19751;BME280;4663;49.120;9.730;2023-02-11T11:26:16;99832.22;;;6.23;60.38
19751;BME280;4663;49.120;9.730;2023-02-11T11:29:00;99827.34;;;6.04;59.42
19751;BME280;4663;49.120;9.730;2023-02-11T11:31:34;99825.66;;;6.52;59.74
19751;BME280;4663;49.120;9.730;2023-02-11T11:34:27;99836.09;;;6.19;59.52
19751;BME280;4663;49.120;9.730;2023-02-11T11:36:54;99829.97;;;5.93;59.46
19751;BME280;4663;49.120;9.730;2023-02-11T11:39:26;99853.25;;;4.47;62.65
19751;BME280;4663;49.120;9.730;2023-02-11T11:42:02;99842.25;;;5.58;60.92
19751;BME280;4663;49.120;9.730;2023-02-11T11:47:18;99871.25;;;5.90;63.15
19751;BME280;4663;49.120;9.730;2023-02-11T11:57:51;99843.91;;;5.34;61.47
19751;BME280;4663;49.120;9.730;2023-02-11T12:03:13;99834.31;;;5.04;61.28
19751;BME280;4663;49.120;9.730;2023-02-11T12:08:20;99843.53;;;5.00;61.43
19751;BME280;4663;49.120;9.730;2023-02-11T12:15:48;99853.97;;;5.44;62.06
19751;BME280;4663;49.120;9.730;2023-02-11T12:27:05;99857.31;;;5.34;62.77
19751;BME280;4663;49.120;9.730;2023-02-11T12:33:33;99850.97;;;5.48;62.69
19751;BME280;4663;49.120;9.730;2023-02-11T12:51:24;99813.25;;;5.39;61.92
19751;BME280;4663;49.120;9.730;2023-02-11T12:54:29;99810.44;;;5.53;61.22
19751;BME280;4663;49.120;9.730;2023-02-11T12:57:02;99827.63;;;5.24;63.09
19751;BME280;4663;49.120;9.730;2023-02-11T13:02:16;99793.22;;;5.82;61.20
19751;BME280;4663;49.120;9.730;2023-02-11T13:04:48;99796.41;;;5.49;61.84
19751;BME280;4663;49.120;9.730;2023-02-11T13:07:36;99799.09;;;5.49;62.04
19751;BME280;4663;49.120;9.730;2023-02-11T13:10:26;99808.69;;;6.02;62.99
19751;BME280;4663;49.120;9.730;2023-02-11T13:12:54;99803.19;;;5.80;62.73
19751;BME280;4663;49.120;9.730;2023-02-11T13:15:50;99783.84;;;6.00;61.98
19751;BME280;4663;49.120;9.730;2023-02-11T13:18:50;99783.66;;;5.91;61.66
19751;BME280;4663;49.120;9.730;2023-02-11T13:27:09;99771.25;;;5.26;61.66
19751;BME280;4663;49.120;9.730;2023-02-11T13:32:12;99766.34;;;5.70;61.17
19751;BME280;4663;49.120;9.730;2023-02-11T13:37:18;99764.97;;;5.65;60.54
19751;BME280;4663;49.120;9.730;2023-02-11T13:40:20;99765.22;;;5.86;59.88
19751;BME280;4663;49.120;9.730;2023-02-11T13:42:50;99791.34;;;5.58;61.46
19751;BME280;4663;49.120;9.730;2023-02-11T13:45:22;99780.19;;;5.64;60.83
19751;BME280;4663;49.120;9.730;2023-02-11T13:47:56;99765.97;;;5.50;60.18
19751;BME280;4663;49.120;9.730;2023-02-11T13:50:23;99771.31;;;5.63;60.60
19751;BME280;4663;49.120;9.730;2023-02-11T13:52:56;99771.53;;;5.47;60.52
19751;BME280;4663;49.120;9.730;2023-02-11T13:55:23;99773.88;;;5.65;61.22
19751;BME280;4663;49.120;9.730;2023-02-11T14:14:23;99790.72;;;4.76;63.75
19751;BME280;4663;49.120;9.730;2023-02-11T14:19:31;99796.38;;;4.71;63.30
19751;BME280;4663;49.120;9.730;2023-02-11T14:22:02;99801.84;;;4.57;63.35
19751;BME280;4663;49.120;9.730;2023-02-11T14:26:59;99790.38;;;4.68;62.71
19751;BME280;4663;49.120;9.730;2023-02-11T14:40:54;99799.41;;;4.39;63.20
19751;BME280;4663;49.120;9.730;2023-02-11T14:43:24;99810.94;;;4.27;63.72
19751;BME280;4663;49.120;9.730;2023-02-11T14:45:53;99800.34;;;4.25;63.63
19751;BME280;4663;49.120;9.730;2023-02-11T14:48:23;99814.13;;;4.59;63.79
19751;BME280;4663;49.120;9.730;2023-02-11T14:50:53;99805.34;;;4.57;62.87
19751;BME280;4663;49.120;9.730;2023-02-11T14:53:23;99813.81;;;4.24;63.88
19751;BME280;4663;49.120;9.730;2023-02-11T14:55:51;99819.19;;;4.37;64.10
19751;BME280;4663;49.120;9.730;2023-02-11T14:58:18;99813.41;;;4.30;63.95
19751;BME280;4663;49.120;9.730;2023-02-11T15:01:00;99809.91;;;4.15;63.55
19751;BME280;4663;49.120;9.730;2023-02-11T15:03:52;99802.94;;;4.12;63.46
19751;BME280;4663;49.120;9.730;2023-02-11T15:06:24;99808.88;;;4.17;64.58
19751;BME280;4663;49.120;9.730;2023-02-11T15:09:01;99806.97;;;4.05;64.33
19751;BME280;4663;49.120;9.730;2023-02-11T15:11:31;99819.16;;;4.24;64.02
19751;BME280;4663;49.120;9.730;2023-02-11T15:14:05;99824.41;;;4.25;64.51
19751;BME280;4663;49.120;9.730;2023-02-11T15:16:32;99828.84;;;4.39;64.28
19751;BME280;4663;49.120;9.730;2023-02-11T15:19:02;99826.06;;;4.41;64.30
19751;BME280;4663;49.120;9.730;2023-02-11T15:21:31;99831.84;;;4.47;64.12
19751;BME280;4663;49.120;9.730;2023-02-11T15:26:28;99842.56;;;4.47;64.35
19751;BME280;4663;49.120;9.730;2023-02-11T15:28:54;99847.66;;;4.38;65.00
19751;BME280;4663;49.120;9.730;2023-02-11T15:31:23;99844.91;;;4.25;64.59
19751;BME280;4663;49.120;9.730;2023-02-11T15:33:49;99855.44;;;4.55;64.98
19751;BME280;4663;49.120;9.730;2023-02-11T15:36:16;99855.72;;;4.51;65.19
19751;BME280;4663;49.120;9.730;2023-02-11T15:38:43;99840.34;;;4.27;64.29
19751;BME280;4663;49.120;9.730;2023-02-11T15:41:34;99846.75;;;4.24;64.19
19751;BME280;4663;49.120;9.730;2023-02-11T15:44:00;99848.66;;;4.22;65.11
19751;BME280;4663;49.120;9.730;2023-02-11T15:46:33;99859.56;;;4.19;65.20
19751;BME280;4663;49.120;9.730;2023-02-11T15:49:00;99868.53;;;4.18;66.35
19751;BME280;4663;49.120;9.730;2023-02-11T15:51:29;99866.03;;;3.87;66.27
19751;BME280;4663;49.120;9.730;2023-02-11T15:53:59;99873.81;;;4.05;66.99
19751;BME280;4663;49.120;9.730;2023-02-11T15:56:29;99867.72;;;4.03;66.47
19751;BME280;4663;49.120;9.730;2023-02-11T15:58:58;99855.00;;;4.06;65.83
19751;BME280;4663;49.120;9.730;2023-02-11T16:01:35;99861.13;;;3.94;67.12
19751;BME280;4663;49.120;9.730;2023-02-11T16:04:02;99853.25;;;3.78;67.26
19751;BME280;4663;49.120;9.730;2023-02-11T16:06:40;99867.88;;;3.72;68.02
19751;BME280;4663;49.120;9.730;2023-02-11T16:19:27;99852.19;;;3.37;69.44
19751;BME280;4663;49.120;9.730;2023-02-11T16:21:54;99863.69;;;3.08;69.48